createdAt,value
2018-10-09T00:00:23.630Z,11.72
2018-10-09T00:01:23.624Z,11.75
2018-10-09T00:02:23.621Z,11.73
2018-10-09T00:03:23.716Z,11.75
2018-10-09T00:04:23.659Z,11.77
2018-10-09T00:05:23.625Z,11.66
2018-10-09T00:06:23.652Z,11.66
2018-10-09T00:07:23.598Z,11.68
2018-10-09T00:08:23.594Z,11.78
2018-10-09T00:09:23.593Z,11.66
2018-10-09T00:10:23.589Z,11.75
2018-10-09T00:11:23.584Z,11.77
2018-10-09T00:12:23.578Z,11.73
2018-10-09T00:13:23.572Z,11.84
2018-10-09T00:14:23.570Z,11.84
2018-10-09T00:15:23.563Z,11.86
2018-10-09T00:16:23.567Z,11.83
2018-10-09T00:17:23.555Z,11.91
2018-10-09T00:18:23.583Z,11.83
2018-10-09T00:19:23.610Z,11.91
2018-10-09T00:20:23.628Z,11.87
2018-10-09T00:21:23.577Z,11.86
2018-10-09T00:22:25.127Z,11.86
2018-10-09T00:23:23.531Z,11.84
2018-10-09T00:24:23.530Z,11.90
2018-10-09T00:25:23.522Z,11.81
2018-10-09T00:26:23.518Z,11.88
2018-10-09T00:27:23.514Z,11.88
2018-10-09T00:28:23.509Z,11.84
2018-10-09T00:29:23.504Z,11.77
2018-10-09T00:30:23.500Z,11.78
2018-10-09T00:31:23.495Z,11.81
2018-10-09T00:32:23.512Z,11.75
2018-10-09T00:33:23.486Z,11.75
2018-10-09T00:34:23.482Z,11.78
2018-10-09T00:35:23.479Z,11.77
2018-10-09T00:36:23.474Z,11.73
2018-10-09T00:37:23.470Z,11.69
2018-10-09T00:38:23.465Z,11.60
2018-10-09T00:39:23.462Z,11.63
2018-10-09T00:40:23.453Z,11.60
2018-10-09T00:41:23.453Z,11.54
2018-10-09T00:42:23.453Z,11.59
2018-10-09T00:43:23.449Z,11.55
2018-10-09T00:44:23.438Z,11.55
2018-10-09T00:45:23.435Z,11.59
2018-10-09T00:46:23.505Z,11.50
2018-10-09T00:47:23.425Z,11.57
2018-10-09T00:48:23.558Z,11.57
2018-10-09T00:49:23.420Z,11.60
2018-10-09T00:50:23.416Z,11.55
2018-10-09T00:51:23.420Z,11.51
2018-10-09T00:52:23.407Z,11.54
2018-10-09T00:53:23.411Z,11.59
2018-10-09T00:54:23.395Z,11.52
2018-10-09T00:55:24.136Z,11.51
2018-10-09T00:56:23.400Z,11.57
2018-10-09T00:57:24.168Z,11.62
2018-10-09T00:58:23.381Z,11.62
2018-10-09T00:59:23.372Z,11.60
2018-10-09T01:00:23.366Z,11.57
2018-10-09T01:01:23.364Z,11.63
2018-10-09T01:02:23.360Z,11.66
2018-10-09T01:03:23.355Z,11.63
2018-10-09T01:04:23.352Z,11.66
2018-10-09T01:05:23.346Z,11.59
2018-10-09T01:06:23.346Z,11.66
2018-10-09T01:07:23.336Z,11.62
2018-10-09T01:08:23.333Z,11.68
2018-10-09T01:09:23.341Z,11.62
2018-10-09T01:10:23.396Z,11.59
2018-10-09T01:11:23.320Z,11.62
2018-10-09T01:12:23.318Z,11.68
2018-10-09T01:13:23.321Z,11.57
2018-10-09T01:14:23.306Z,11.60
2018-10-09T01:15:23.303Z,11.57
2018-10-09T01:16:23.311Z,11.63
2018-10-09T01:17:23.327Z,11.65
2018-10-09T01:18:23.289Z,11.65
2018-10-09T01:19:23.282Z,11.60
2018-10-09T01:20:23.279Z,11.66
2018-10-09T01:21:23.273Z,11.54
2018-10-09T01:22:23.271Z,11.60
2018-10-09T01:23:23.267Z,11.62
2018-10-09T01:24:23.270Z,11.54
2018-10-09T01:25:23.258Z,11.60
2018-10-09T01:26:23.253Z,11.54
2018-10-09T01:27:23.251Z,11.54
2018-10-09T01:28:23.249Z,11.59
2018-10-09T01:29:23.240Z,11.59
2018-10-09T01:30:23.235Z,11.54
2018-10-09T01:31:23.230Z,11.48
2018-10-09T01:32:23.226Z,11.48
2018-10-09T01:33:23.222Z,11.50
2018-10-09T01:34:23.219Z,11.40
2018-10-09T01:35:23.212Z,11.48
2018-10-09T01:36:23.211Z,11.44
2018-10-09T01:37:23.203Z,11.51
2018-10-09T01:38:23.210Z,11.44
2018-10-09T01:39:23.199Z,11.47
2018-10-09T01:40:23.187Z,11.43
2018-10-09T01:41:23.187Z,11.50
2018-10-09T01:42:23.192Z,11.48
2018-10-09T01:43:23.177Z,11.48
2018-10-09T01:44:23.172Z,11.50
2018-10-09T01:45:23.168Z,11.44
2018-10-09T01:46:23.163Z,11.57
2018-10-09T01:47:23.159Z,11.50
2018-10-09T01:48:23.153Z,11.52
2018-10-09T01:49:23.148Z,11.57
2018-10-09T01:50:23.145Z,11.52
2018-10-09T01:51:23.140Z,11.57
2018-10-09T01:52:23.136Z,11.59
2018-10-09T01:53:23.135Z,11.60
2018-10-09T01:54:23.125Z,11.51
2018-10-09T01:55:23.123Z,11.57
2018-10-09T01:56:23.122Z,11.63
2018-10-09T01:57:23.117Z,11.45
2018-10-09T01:58:23.109Z,11.55
2018-10-09T01:59:23.104Z,11.59
2018-10-09T02:00:23.100Z,11.59
2018-10-09T02:01:23.096Z,11.62
2018-10-09T02:02:23.094Z,11.60
2018-10-09T02:03:23.088Z,11.63
2018-10-09T02:04:23.082Z,11.60
2018-10-09T02:05:23.079Z,11.66
2018-10-09T02:06:23.073Z,11.63
2018-10-09T02:07:23.075Z,11.69
2018-10-09T02:08:23.063Z,11.69
2018-10-09T02:09:23.060Z,11.59
2018-10-09T02:10:23.055Z,11.54
2018-10-09T02:11:23.049Z,11.55
2018-10-09T02:12:23.046Z,11.55
2018-10-09T02:13:23.039Z,11.54
2018-10-09T02:14:23.037Z,11.51
2018-10-09T02:15:23.031Z,11.43
2018-10-09T02:16:23.026Z,11.51
2018-10-09T02:17:23.021Z,11.44
2018-10-09T02:18:23.161Z,11.47
2018-10-09T02:19:23.013Z,11.48
2018-10-09T02:20:23.008Z,11.48
2018-10-09T02:21:23.014Z,11.45
2018-10-09T02:22:23.001Z,11.60
2018-10-09T02:23:22.996Z,11.60
2018-10-09T02:24:22.988Z,11.62
2018-10-09T02:25:22.984Z,11.55
2018-10-09T02:26:22.981Z,11.59
2018-10-09T02:27:22.975Z,11.62
2018-10-09T02:28:22.970Z,11.62
2018-10-09T02:29:22.967Z,11.63
2018-10-09T02:30:22.964Z,11.62
2018-10-09T02:31:22.963Z,11.69
2018-10-09T02:32:22.950Z,11.62
2018-10-09T02:33:22.997Z,11.60
2018-10-09T02:34:22.942Z,11.63
2018-10-09T02:35:22.945Z,11.70
2018-10-09T02:36:22.934Z,11.69
2018-10-09T02:37:22.929Z,11.63
2018-10-09T02:38:22.925Z,11.65
2018-10-09T02:39:22.920Z,11.62
2018-10-09T02:40:22.915Z,11.57
2018-10-09T02:41:22.910Z,11.59
2018-10-09T02:42:22.904Z,11.59
2018-10-09T02:43:22.901Z,11.59
2018-10-09T02:44:22.895Z,11.52
2018-10-09T02:45:22.947Z,11.60
2018-10-09T02:46:22.893Z,11.60
2018-10-09T02:47:22.883Z,11.55
2018-10-09T02:48:22.879Z,11.60
2018-10-09T02:49:22.873Z,11.55
2018-10-09T02:50:22.870Z,11.52
2018-10-09T02:51:22.865Z,11.54
2018-10-09T02:52:22.858Z,11.47
2018-10-09T02:53:22.854Z,11.45
2018-10-09T02:54:22.851Z,11.48
2018-10-09T02:55:22.854Z,11.47
2018-10-09T02:56:22.840Z,11.50
2018-10-09T02:57:22.838Z,11.48
2018-10-09T02:58:22.833Z,11.47
2018-10-09T02:59:22.827Z,11.54
2018-10-09T03:00:22.825Z,11.54
2018-10-09T03:01:22.817Z,11.52
2018-10-09T03:02:22.814Z,11.59
2018-10-09T03:03:22.809Z,11.62
2018-10-09T03:04:22.804Z,11.52
2018-10-09T03:05:22.798Z,11.59
2018-10-09T03:06:22.795Z,11.55
2018-10-09T03:07:22.791Z,11.57
2018-10-09T03:08:22.798Z,11.60
2018-10-09T03:09:22.866Z,11.62
2018-10-09T03:10:22.816Z,11.57
2018-10-09T03:11:22.860Z,11.65
2018-10-09T03:12:22.790Z,11.59
2018-10-09T03:13:22.770Z,11.63
2018-10-09T03:14:22.765Z,11.57
2018-10-09T03:15:22.770Z,11.62
2018-10-09T03:16:22.769Z,11.65
2018-10-09T03:17:22.754Z,11.62
2018-10-09T03:18:37.786Z,11.55
2018-10-09T03:19:22.736Z,11.62
2018-10-09T03:20:22.731Z,11.51
2018-10-09T03:21:22.724Z,11.60
2018-10-09T03:22:22.739Z,11.62
2018-10-09T03:23:22.715Z,11.60
2018-10-09T03:24:22.709Z,11.57
2018-10-09T03:25:22.877Z,11.57
2018-10-09T03:26:22.701Z,11.60
2018-10-09T03:27:22.714Z,11.59
2018-10-09T03:28:22.689Z,11.59
2018-10-09T03:29:22.686Z,11.60
2018-10-09T03:30:22.681Z,11.62
2018-10-09T03:31:22.704Z,11.66
2018-10-09T03:32:22.672Z,11.54
2018-10-09T03:33:22.697Z,11.65
2018-10-09T03:34:22.664Z,11.62
2018-10-09T03:35:22.697Z,11.57
2018-10-09T03:36:22.654Z,11.59
2018-10-09T03:37:22.665Z,11.62
2018-10-09T03:38:22.653Z,11.62
2018-10-09T03:39:22.659Z,11.55
2018-10-09T03:40:22.669Z,11.62
2018-10-09T03:41:22.673Z,11.62
2018-10-09T03:42:22.672Z,11.59
2018-10-09T03:43:22.653Z,11.63
2018-10-09T03:44:22.665Z,11.68
2018-10-09T03:45:22.611Z,11.60
2018-10-09T03:46:22.676Z,11.65
2018-10-09T03:47:22.616Z,11.60
2018-10-09T03:48:22.696Z,11.69
2018-10-09T03:49:22.605Z,11.70
2018-10-09T03:50:22.601Z,11.66
2018-10-09T03:51:22.610Z,11.57
2018-10-09T03:52:22.584Z,11.57
2018-10-09T03:53:22.575Z,11.63
2018-10-09T03:54:22.574Z,11.60
2018-10-09T03:55:22.569Z,11.55
2018-10-09T03:56:22.562Z,11.52
2018-10-09T03:57:22.558Z,11.54
2018-10-09T03:58:22.555Z,11.59
2018-10-09T03:59:22.550Z,11.63
2018-10-09T04:00:22.543Z,11.57
2018-10-09T04:01:22.553Z,11.60
2018-10-09T04:02:22.541Z,11.62
2018-10-09T04:03:22.530Z,11.60
2018-10-09T04:04:22.530Z,11.60
2018-10-09T04:05:22.521Z,11.59
2018-10-09T04:06:22.517Z,11.60
2018-10-09T04:07:22.512Z,11.55
2018-10-09T04:08:22.510Z,11.55
2018-10-09T04:09:22.515Z,11.57
2018-10-09T04:10:22.498Z,11.59
2018-10-09T04:11:22.494Z,11.59
2018-10-09T04:12:22.489Z,11.54
2018-10-09T04:13:22.486Z,11.55
2018-10-09T04:14:22.479Z,11.50
2018-10-09T04:15:22.475Z,11.50
2018-10-09T04:16:22.469Z,11.50
2018-10-09T04:17:22.466Z,11.45
2018-10-09T04:18:22.462Z,11.54
2018-10-09T04:19:22.563Z,11.51
2018-10-09T04:20:22.452Z,11.54
2018-10-09T04:21:22.449Z,11.52
2018-10-09T04:22:22.452Z,11.60
2018-10-09T04:23:22.440Z,11.55
2018-10-09T04:24:22.435Z,11.55
2018-10-09T04:25:22.428Z,11.60
2018-10-09T04:26:22.425Z,11.48
2018-10-09T04:27:22.419Z,11.47
2018-10-09T04:28:22.412Z,11.45
2018-10-09T04:29:22.451Z,11.50
2018-10-09T04:30:22.403Z,11.48
2018-10-09T04:31:22.403Z,11.48
2018-10-09T04:32:22.395Z,11.44
2018-10-09T04:33:22.399Z,11.45
2018-10-09T04:34:22.386Z,11.45
2018-10-09T04:35:22.386Z,11.44
2018-10-09T04:36:22.376Z,11.50
2018-10-09T04:37:22.371Z,11.48
2018-10-09T04:38:22.366Z,11.47
2018-10-09T04:39:22.363Z,11.45
2018-10-09T04:40:22.360Z,11.41
2018-10-09T04:41:22.354Z,11.47
2018-10-09T04:42:22.348Z,11.48
2018-10-09T04:43:22.343Z,11.55
2018-10-09T04:44:22.337Z,11.65
2018-10-09T04:45:22.340Z,11.50
2018-10-09T04:46:22.333Z,11.54
2018-10-09T04:47:22.325Z,11.47
2018-10-09T04:48:22.330Z,11.48
2018-10-09T04:49:22.315Z,11.44
2018-10-09T04:50:22.311Z,11.43
2018-10-09T04:51:22.307Z,11.33
2018-10-09T04:52:22.300Z,11.44
2018-10-09T04:53:22.299Z,11.50
2018-10-09T04:54:22.348Z,11.48
2018-10-09T04:55:22.286Z,11.48
2018-10-09T04:56:22.285Z,11.45
2018-10-09T04:57:22.277Z,11.47
2018-10-09T04:58:22.273Z,11.47
2018-10-09T04:59:22.268Z,11.48
2018-10-09T05:00:22.268Z,11.45
2018-10-09T05:01:22.259Z,11.45
2018-10-09T05:02:22.253Z,11.47
2018-10-09T05:03:22.249Z,11.52
2018-10-09T05:04:22.245Z,11.57
2018-10-09T05:05:22.238Z,11.57
2018-10-09T05:06:22.235Z,11.57
2018-10-09T05:07:22.231Z,11.55
2018-10-09T05:08:22.226Z,11.54
2018-10-09T05:09:22.221Z,11.54
2018-10-09T05:10:22.215Z,11.57
2018-10-09T05:11:22.211Z,11.54
2018-10-09T05:12:22.205Z,11.54
2018-10-09T05:13:22.203Z,11.54
2018-10-09T05:14:22.239Z,11.45
2018-10-09T05:15:22.192Z,11.63
2018-10-09T05:16:22.187Z,11.55
2018-10-09T05:17:22.182Z,11.45
2018-10-09T05:18:22.183Z,11.57
2018-10-09T05:19:22.173Z,11.45
2018-10-09T05:20:22.166Z,11.48
2018-10-09T05:21:22.163Z,11.54
2018-10-09T05:22:22.157Z,11.57
2018-10-09T05:23:22.227Z,11.54
2018-10-09T05:24:22.152Z,11.62
2018-10-09T05:25:22.143Z,11.55
2018-10-09T05:26:22.140Z,11.59
2018-10-09T05:27:22.136Z,11.63
2018-10-09T05:28:22.131Z,11.63
2018-10-09T05:29:22.124Z,11.65
2018-10-09T05:30:22.126Z,11.55
2018-10-09T05:31:22.285Z,11.63
2018-10-09T05:32:22.111Z,11.62
2018-10-09T05:33:22.108Z,11.59
2018-10-09T05:34:22.103Z,11.55
2018-10-09T05:35:22.097Z,11.57
2018-10-09T05:36:22.093Z,11.51
2018-10-09T05:37:22.090Z,11.47
2018-10-09T05:38:22.104Z,11.44
2018-10-09T05:39:22.079Z,11.48
2018-10-09T05:40:22.074Z,11.43
2018-10-09T05:41:22.075Z,11.48
2018-10-09T05:42:22.064Z,11.47
2018-10-09T05:43:22.061Z,11.43
2018-10-09T05:44:22.169Z,11.47
2018-10-09T05:45:22.048Z,11.45
2018-10-09T05:46:22.045Z,11.48
2018-10-09T05:47:22.040Z,11.44
2018-10-09T05:48:22.041Z,11.48
2018-10-09T05:49:22.027Z,11.44
2018-10-09T05:50:22.025Z,11.43
2018-10-09T05:51:22.022Z,11.45
2018-10-09T05:52:22.049Z,11.48
2018-10-09T05:53:22.010Z,11.55
2018-10-09T05:54:22.004Z,11.52
2018-10-09T05:55:22.002Z,11.57
2018-10-09T05:56:21.997Z,11.59
2018-10-09T05:57:21.991Z,11.62
2018-10-09T05:58:21.987Z,11.59
2018-10-09T05:59:21.986Z,11.63
2018-10-09T06:00:21.981Z,11.59
2018-10-09T06:01:21.972Z,11.60
2018-10-09T06:02:21.968Z,11.54
2018-10-09T06:03:21.961Z,11.60
2018-10-09T06:04:21.957Z,11.62
2018-10-09T06:05:21.952Z,11.52
2018-10-09T06:06:21.952Z,11.59
2018-10-09T06:07:21.945Z,11.59
2018-10-09T06:08:21.939Z,11.59
2018-10-09T06:09:21.933Z,11.63
2018-10-09T06:10:21.928Z,11.60
2018-10-09T06:11:21.922Z,11.66
2018-10-09T06:12:21.919Z,11.66
2018-10-09T06:13:21.916Z,11.70
2018-10-09T06:14:21.910Z,11.77
2018-10-09T06:15:21.906Z,11.75
2018-10-09T06:16:21.900Z,11.77
2018-10-09T06:17:21.897Z,11.80
2018-10-09T06:18:21.888Z,11.81
2018-10-09T06:19:21.887Z,11.83
2018-10-09T06:20:21.880Z,11.83
2018-10-09T06:21:21.880Z,11.87
2018-10-09T06:22:21.909Z,11.84
2018-10-09T06:23:21.868Z,11.87
2018-10-09T06:24:21.863Z,11.95
2018-10-09T06:25:21.857Z,11.87
2018-10-09T06:26:21.852Z,11.80
2018-10-09T06:27:21.848Z,11.88
2018-10-09T06:28:21.898Z,11.87
2018-10-09T06:29:21.840Z,11.81
2018-10-09T06:30:21.837Z,11.88
2018-10-09T06:31:21.831Z,11.88
2018-10-09T06:32:21.826Z,11.83
2018-10-09T06:33:21.824Z,11.90
2018-10-09T06:34:21.821Z,11.83
2018-10-09T06:35:21.817Z,11.88
2018-10-09T06:36:21.809Z,11.80
2018-10-09T06:37:21.850Z,11.86
2018-10-09T06:38:21.800Z,11.88
2018-10-09T06:39:21.796Z,11.84
2018-10-09T06:40:21.826Z,11.95
2018-10-09T06:41:21.796Z,12.00
2018-10-09T06:42:21.793Z,12.00
2018-10-09T06:43:21.786Z,12.09
2018-10-09T06:44:21.820Z,12.02
2018-10-09T06:45:21.766Z,12.06
2018-10-09T06:46:21.763Z,11.99
2018-10-09T06:47:21.768Z,12.02
2018-10-09T06:48:21.816Z,12.06
2018-10-09T06:49:21.750Z,12.10
2018-10-09T06:50:21.743Z,12.03
2018-10-09T06:51:21.740Z,12.07
2018-10-09T06:52:21.741Z,12.09
2018-10-09T06:53:21.787Z,12.02
2018-10-09T06:54:21.779Z,12.02
2018-10-09T06:55:21.724Z,12.03
2018-10-09T06:56:21.718Z,12.03
2018-10-09T06:57:21.713Z,12.09
2018-10-09T06:58:21.710Z,12.09
2018-10-09T06:59:21.708Z,12.10
2018-10-09T07:00:21.780Z,12.04
2018-10-09T07:01:21.709Z,12.02
2018-10-09T07:02:21.691Z,12.03
2018-10-09T07:03:21.687Z,12.07
2018-10-09T07:04:21.683Z,12.00
2018-10-09T07:05:21.681Z,12.15
2018-10-09T07:06:21.675Z,12.17
2018-10-09T07:07:21.673Z,12.25
2018-10-09T07:08:21.675Z,12.18
2018-10-09T07:09:21.711Z,12.17
2018-10-09T07:10:21.658Z,12.24
2018-10-09T07:11:21.686Z,12.36
2018-10-09T07:12:21.654Z,12.32
2018-10-09T07:13:21.642Z,12.36
2018-10-09T07:14:21.644Z,12.36
2018-10-09T07:15:21.635Z,12.39
2018-10-09T07:16:21.630Z,12.47
2018-10-09T07:17:21.628Z,12.43
2018-10-09T07:18:21.623Z,12.47
2018-10-09T07:19:21.635Z,12.47
2018-10-09T07:20:21.614Z,12.45
2018-10-09T07:21:21.625Z,12.42
2018-10-09T07:22:21.608Z,12.50
2018-10-09T07:23:21.602Z,12.50
2018-10-09T07:24:21.600Z,12.49
2018-10-09T07:25:21.593Z,12.40
2018-10-09T07:26:21.590Z,12.49
2018-10-09T07:27:21.596Z,12.49
2018-10-09T07:28:21.586Z,12.46
2018-10-09T07:29:21.579Z,12.50
2018-10-09T07:30:21.578Z,12.60
2018-10-09T07:31:21.570Z,12.53
2018-10-09T07:32:21.566Z,12.47
2018-10-09T07:33:21.575Z,12.47
2018-10-09T07:34:21.559Z,12.60
2018-10-09T07:35:21.555Z,12.60
2018-10-09T07:36:21.549Z,12.57
2018-10-09T07:37:21.592Z,12.62
2018-10-09T07:38:21.544Z,12.57
2018-10-09T07:39:21.542Z,12.61
2018-10-09T07:40:21.532Z,12.58
2018-10-09T07:41:21.531Z,12.57
2018-10-09T07:42:21.527Z,12.73
2018-10-09T07:43:21.526Z,12.72
2018-10-09T07:44:21.587Z,12.79
2018-10-09T07:45:21.518Z,12.79
2018-10-09T07:46:21.513Z,12.93
2018-10-09T07:47:21.509Z,12.91
2018-10-09T07:48:21.504Z,12.97
2018-10-09T07:49:21.503Z,12.97
2018-10-09T07:50:21.495Z,12.98
2018-10-09T07:51:21.496Z,12.95
2018-10-09T07:52:21.491Z,13.01
2018-10-09T07:53:21.485Z,12.90
2018-10-09T07:54:21.480Z,12.93
2018-10-09T07:55:21.478Z,12.90
2018-10-09T07:56:21.480Z,13.03
2018-10-09T07:57:21.472Z,13.01
2018-10-09T07:58:21.469Z,13.03
2018-10-09T07:59:21.464Z,13.04
2018-10-09T08:00:21.460Z,13.01
2018-10-09T08:01:21.455Z,13.12
2018-10-09T08:02:21.454Z,13.03
2018-10-09T08:03:21.448Z,13.15
2018-10-09T08:04:21.464Z,13.09
2018-10-09T08:05:21.440Z,13.22
2018-10-09T08:06:21.437Z,13.19
2018-10-09T08:07:21.433Z,13.22
2018-10-09T08:08:21.433Z,13.37
2018-10-09T08:09:21.425Z,13.41
2018-10-09T08:10:21.452Z,13.35
2018-10-09T08:11:21.424Z,13.35
2018-10-09T08:12:21.416Z,13.41
2018-10-09T08:13:21.413Z,13.39
2018-10-09T08:14:21.410Z,13.46
2018-10-09T08:15:21.408Z,13.42
2018-10-09T08:16:21.453Z,13.39
2018-10-09T08:17:21.399Z,13.44
2018-10-09T08:18:21.400Z,13.50
2018-10-09T08:19:21.393Z,13.54
2018-10-09T08:20:21.391Z,13.54
2018-10-09T08:21:21.387Z,13.62
2018-10-09T08:22:21.420Z,13.72
2018-10-09T08:23:21.381Z,13.70
2018-10-09T08:24:21.378Z,13.75
2018-10-09T08:25:21.376Z,13.86
2018-10-09T08:26:21.374Z,13.89
2018-10-09T08:27:21.369Z,13.95
2018-10-09T08:28:21.373Z,14.00
2018-10-09T08:29:21.364Z,14.03
2018-10-09T08:30:21.360Z,13.95
2018-10-09T08:31:21.357Z,13.95
2018-10-09T08:32:21.429Z,13.96
2018-10-09T08:33:21.354Z,13.95
2018-10-09T08:34:21.430Z,13.99
2018-10-09T08:35:21.349Z,13.99
2018-10-09T08:36:21.342Z,13.96
2018-10-09T08:37:21.339Z,14.00
2018-10-09T08:38:21.339Z,13.96
2018-10-09T08:39:21.335Z,13.99
2018-10-09T08:40:21.357Z,13.97
2018-10-09T08:41:21.352Z,14.03
2018-10-09T08:42:21.325Z,14.12
2018-10-09T08:43:21.329Z,14.07
2018-10-09T08:44:21.319Z,14.10
2018-10-09T08:45:21.314Z,14.11
2018-10-09T08:46:21.402Z,14.15
2018-10-09T08:47:21.316Z,14.10
2018-10-09T08:48:21.308Z,14.12
2018-10-09T08:49:21.304Z,14.08
2018-10-09T08:50:21.303Z,14.15
2018-10-09T08:51:21.302Z,14.08
2018-10-09T08:52:21.300Z,14.05
2018-10-09T08:53:21.296Z,14.25
2018-10-09T08:54:21.293Z,14.20
2018-10-09T08:55:21.292Z,14.20
2018-10-09T08:56:21.285Z,14.20
2018-10-09T08:57:21.327Z,14.17
2018-10-09T08:58:21.281Z,14.26
2018-10-09T08:59:21.283Z,14.33
2018-10-09T09:00:21.276Z,14.30
2018-10-09T09:01:21.274Z,14.23
2018-10-09T09:02:21.271Z,14.30
2018-10-09T09:03:21.292Z,14.36
2018-10-09T09:04:21.264Z,14.47
2018-10-09T09:05:21.262Z,14.54
2018-10-09T09:06:21.287Z,14.51
2018-10-09T09:07:21.258Z,14.53
2018-10-09T09:08:21.257Z,14.53
2018-10-09T09:09:21.253Z,14.55
2018-10-09T09:10:21.251Z,14.55
2018-10-09T09:11:21.248Z,14.63
2018-10-09T09:12:21.245Z,14.69
2018-10-09T09:13:21.243Z,14.63
2018-10-09T09:14:21.239Z,14.62
2018-10-09T09:15:21.250Z,14.66
2018-10-09T09:16:21.235Z,14.62
2018-10-09T09:17:21.231Z,14.78
2018-10-09T09:18:21.229Z,14.73
2018-10-09T09:19:21.230Z,14.73
2018-10-09T09:20:21.243Z,14.77
2018-10-09T09:21:21.252Z,14.72
2018-10-09T09:22:21.323Z,14.85
2018-10-09T09:23:22.340Z,14.82
2018-10-09T09:24:21.388Z,14.88
2018-10-09T09:25:21.280Z,14.89
2018-10-09T09:26:21.215Z,14.86
2018-10-09T09:27:21.233Z,14.97
2018-10-09T09:28:21.207Z,14.96
2018-10-09T09:29:21.222Z,15.00
2018-10-09T09:30:21.202Z,15.06
2018-10-09T09:31:21.200Z,15.07
2018-10-09T09:32:21.196Z,15.14
2018-10-09T09:33:21.203Z,15.10
2018-10-09T09:34:21.201Z,15.11
2018-10-09T09:35:21.196Z,15.25
2018-10-09T09:36:21.191Z,15.24
2018-10-09T09:37:21.187Z,15.31
2018-10-09T09:38:21.201Z,15.24
2018-10-09T09:39:21.183Z,15.29
2018-10-09T09:40:21.180Z,15.33
2018-10-09T09:41:21.184Z,15.39
2018-10-09T09:42:21.177Z,15.40
2018-10-09T09:43:21.176Z,15.42
2018-10-09T09:44:21.179Z,15.39
2018-10-09T09:45:21.172Z,15.47
2018-10-09T09:46:21.259Z,15.42
2018-10-09T09:47:21.166Z,15.46
2018-10-09T09:48:21.165Z,15.52
2018-10-09T09:49:21.161Z,15.55
2018-10-09T09:50:21.164Z,15.52
2018-10-09T09:51:21.169Z,15.59
2018-10-09T09:52:21.376Z,15.59
2018-10-09T09:53:21.152Z,15.58
2018-10-09T09:54:21.154Z,15.61
2018-10-09T09:55:21.150Z,15.61
2018-10-09T09:56:21.205Z,15.64
2018-10-09T09:57:21.146Z,15.67
2018-10-09T09:58:21.225Z,15.68
2018-10-09T09:59:21.234Z,15.80
2018-10-09T10:00:21.153Z,15.75
2018-10-09T10:01:21.141Z,15.67
2018-10-09T10:02:21.136Z,15.76
2018-10-09T10:03:21.137Z,15.72
2018-10-09T10:04:21.153Z,15.77
2018-10-09T10:05:21.140Z,15.73
2018-10-09T10:06:21.149Z,15.68
2018-10-09T10:07:21.132Z,15.77
2018-10-09T10:08:21.125Z,15.84
2018-10-09T10:09:21.159Z,15.92
2018-10-09T10:10:21.132Z,15.83
2018-10-09T10:11:21.124Z,15.94
2018-10-09T10:12:21.119Z,15.95
2018-10-09T10:13:21.124Z,15.98
2018-10-09T10:14:21.115Z,16.02
2018-10-09T10:15:21.115Z,16.09
2018-10-09T10:16:21.116Z,16.09
2018-10-09T10:17:21.112Z,16.17
2018-10-09T10:18:21.111Z,16.20
2018-10-09T10:19:21.108Z,16.23
2018-10-09T10:20:21.119Z,16.29
2018-10-09T10:21:21.123Z,16.33
2018-10-09T10:22:21.108Z,16.32
2018-10-09T10:23:21.103Z,16.29
2018-10-09T10:24:21.101Z,16.43
2018-10-09T10:25:21.102Z,16.38
2018-10-09T10:26:21.101Z,16.46
2018-10-09T10:27:21.098Z,16.49
2018-10-09T10:28:21.098Z,16.54
2018-10-09T10:29:21.097Z,16.51
2018-10-09T10:30:21.091Z,16.71
2018-10-09T10:31:21.091Z,16.69
2018-10-09T10:32:21.088Z,16.84
2018-10-09T10:33:21.087Z,16.74
2018-10-09T10:34:21.099Z,16.78
2018-10-09T10:35:21.090Z,16.81
2018-10-09T10:36:21.092Z,16.90
2018-10-09T10:37:21.090Z,16.79
2018-10-09T10:38:21.087Z,16.91
2018-10-09T10:39:21.081Z,16.86
2018-10-09T10:40:21.080Z,16.89
2018-10-09T10:41:21.082Z,16.89
2018-10-09T10:42:21.078Z,16.97
2018-10-09T10:43:21.085Z,16.97
2018-10-09T10:44:21.082Z,16.94
2018-10-09T10:45:21.073Z,16.97
2018-10-09T10:46:21.075Z,16.99
2018-10-09T10:47:21.080Z,17.11
2018-10-09T10:48:21.068Z,17.15
2018-10-09T10:49:21.110Z,16.99
2018-10-09T10:50:21.074Z,17.01
2018-10-09T10:51:21.070Z,17.09
2018-10-09T10:52:21.069Z,17.12
2018-10-09T10:53:21.062Z,17.20
2018-10-09T10:54:21.092Z,17.09
2018-10-09T10:55:21.063Z,17.19
2018-10-09T10:56:21.060Z,17.30
2018-10-09T10:57:21.061Z,17.24
2018-10-09T10:58:21.060Z,17.29
2018-10-09T10:59:21.141Z,17.36
2018-10-09T11:00:21.063Z,17.39
2018-10-09T11:01:21.115Z,17.42
2018-10-09T11:02:21.055Z,17.31
2018-10-09T11:03:21.057Z,17.49
2018-10-09T11:04:21.055Z,17.45
2018-10-09T11:05:21.055Z,17.54
2018-10-09T11:06:21.051Z,17.49
2018-10-09T11:07:21.058Z,17.59
2018-10-09T11:08:21.104Z,17.59
2018-10-09T11:09:21.050Z,17.54
2018-10-09T11:10:21.048Z,17.52
2018-10-09T11:11:21.048Z,17.63
2018-10-09T11:12:21.047Z,17.64
2018-10-09T11:13:21.050Z,17.63
2018-10-09T11:14:21.045Z,17.60
2018-10-09T11:15:21.047Z,17.65
2018-10-09T11:16:21.060Z,17.70
2018-10-09T11:17:21.047Z,17.82
2018-10-09T11:18:21.044Z,17.82
2018-10-09T11:19:21.044Z,17.82
2018-10-09T11:20:21.041Z,17.76
2018-10-09T11:21:21.150Z,17.85
2018-10-09T11:22:21.043Z,17.86
2018-10-09T11:23:21.045Z,17.86
2018-10-09T11:24:21.040Z,17.95
2018-10-09T11:25:21.043Z,17.98
2018-10-09T11:26:21.040Z,17.94
2018-10-09T11:27:21.044Z,18.03
2018-10-09T11:28:21.040Z,18.03
2018-10-09T11:29:21.063Z,18.04
2018-10-09T11:30:21.053Z,18.03
2018-10-09T11:31:21.043Z,18.18
2018-10-09T11:32:21.061Z,18.10
2018-10-09T11:33:21.038Z,18.15
2018-10-09T11:34:21.040Z,18.20
2018-10-09T11:35:21.034Z,18.23
2018-10-09T11:36:21.036Z,18.15
2018-10-09T11:37:21.036Z,18.26
2018-10-09T11:38:21.036Z,18.23
2018-10-09T11:39:21.037Z,18.22
2018-10-09T11:40:21.043Z,18.29
2018-10-09T11:41:21.036Z,18.28
2018-10-09T11:42:21.034Z,18.26
2018-10-09T11:43:21.033Z,18.40
2018-10-09T11:44:21.030Z,18.38
2018-10-09T11:45:21.033Z,18.38
2018-10-09T11:46:21.034Z,18.45
2018-10-09T11:47:21.043Z,18.44
2018-10-09T11:48:21.030Z,18.56
2018-10-09T11:49:21.031Z,18.62
2018-10-09T11:50:21.030Z,18.58
2018-10-09T11:51:21.031Z,18.60
2018-10-09T11:52:21.037Z,18.71
2018-10-09T11:53:21.028Z,18.78
2018-10-09T11:54:21.030Z,18.70
2018-10-09T11:55:21.033Z,18.77
2018-10-09T11:56:21.028Z,18.83
2018-10-09T11:57:21.028Z,18.89
2018-10-09T11:58:21.029Z,18.83
2018-10-09T11:59:21.030Z,18.93
2018-10-09T12:00:21.027Z,19.02
2018-10-09T12:01:21.029Z,18.99
2018-10-09T12:02:21.031Z,19.09
2018-10-09T12:03:21.028Z,19.12
2018-10-09T12:04:21.028Z,19.11
2018-10-09T12:05:21.029Z,19.12
2018-10-09T12:06:21.031Z,19.14
2018-10-09T12:07:21.027Z,19.07
2018-10-09T12:08:21.027Z,19.16
2018-10-09T12:09:21.028Z,19.18
2018-10-09T12:10:21.027Z,19.29
2018-10-09T12:11:21.032Z,19.31
2018-10-09T12:12:21.028Z,19.33
2018-10-09T12:13:21.028Z,19.33
2018-10-09T12:14:21.031Z,19.37
2018-10-09T12:15:21.028Z,19.41
2018-10-09T12:16:21.040Z,19.49
2018-10-09T12:17:21.028Z,19.59
2018-10-09T12:18:21.030Z,19.58
2018-10-09T12:19:21.031Z,19.59
2018-10-09T12:20:21.029Z,19.59
2018-10-09T12:21:21.084Z,19.66
2018-10-09T12:22:21.040Z,19.64
2018-10-09T12:23:21.031Z,19.71
2018-10-09T12:24:21.029Z,19.70
2018-10-09T12:25:21.033Z,19.69
2018-10-09T12:26:21.035Z,19.76
2018-10-09T12:27:21.061Z,19.77
2018-10-09T12:28:21.031Z,19.85
2018-10-09T12:29:21.047Z,19.79
2018-10-09T12:30:21.041Z,19.92
2018-10-09T12:31:21.034Z,19.88
2018-10-09T12:32:21.032Z,19.89
2018-10-09T12:33:21.041Z,19.92
2018-10-09T12:34:21.037Z,19.91
2018-10-09T12:35:21.040Z,19.88
2018-10-09T12:36:21.036Z,19.94
2018-10-09T12:37:21.035Z,19.95
2018-10-09T12:38:21.088Z,19.96
2018-10-09T12:39:21.040Z,20.03
2018-10-09T12:40:21.039Z,20.06
2018-10-09T12:41:21.036Z,20.11
2018-10-09T12:42:21.038Z,20.18
2018-10-09T12:43:21.040Z,20.21
2018-10-09T12:44:21.095Z,20.06
2018-10-09T12:45:21.040Z,20.22
2018-10-09T12:46:21.040Z,20.22
2018-10-09T12:47:21.043Z,20.16
2018-10-09T12:48:21.043Z,20.25
2018-10-09T12:49:21.042Z,20.22
2018-10-09T12:50:21.047Z,20.36
2018-10-09T12:51:21.044Z,20.36
2018-10-09T12:52:21.044Z,20.32